createdAt,value
2022-08-18T00:01:09.186Z,9.414882
2022-08-18T00:06:11.169Z,8.697908
2022-08-18T00:11:13.137Z,8.852642
2022-08-18T00:16:14.904Z,8.98002
2022-08-18T00:21:17.289Z,8.510188
2022-08-18T00:26:19.145Z,8.504448
2022-08-18T00:31:20.894Z,8.645356
2022-08-18T00:36:22.892Z,8.254946
2022-08-18T00:41:24.786Z,8.323636
2022-08-18T00:46:26.523Z,8.584332
2022-08-18T00:51:28.731Z,9.095646
2022-08-18T00:56:30.533Z,8.197736
2022-08-18T01:01:32.298Z,8.233926
2022-08-18T01:06:34.197Z,8.759204
2022-08-18T01:11:35.971Z,8.043288
2022-08-18T01:16:37.737Z,8.13122
2022-08-18T01:21:39.611Z,8.458232
2022-08-18T01:26:44.153Z,7.640926
2022-08-18T01:31:54.282Z,7.613122
2022-08-18T01:36:57.125Z,8.248176
2022-08-18T01:41:58.748Z,8.156378
2022-08-18T01:47:00.424Z,8.033982
2022-08-18T01:52:02.384Z,7.691242
2022-08-18T01:57:03.867Z,7.651686
2022-08-18T02:02:05.564Z,7.300112
2022-08-18T02:07:07.501Z,7.02795
2022-08-18T02:12:09.395Z,7.275974
2022-08-18T02:17:11.098Z,6.754062
2022-08-18T02:22:13.123Z,6.612248
2022-08-18T02:27:14.548Z,6.362908
2022-08-18T02:32:16.108Z,6.867328
2022-08-18T02:37:17.565Z,6.027524
2022-08-18T02:42:19.107Z,6.108724
2022-08-18T02:47:20.547Z,5.728168
2022-08-18T02:52:22.417Z,6.107532
2022-08-18T02:57:23.822Z,5.525168
2022-08-18T03:02:25.359Z,6.112824
2022-08-18T03:07:26.851Z,6.305226
2022-08-18T03:12:28.378Z,5.973656
2022-08-18T03:17:29.806Z,5.749488
2022-08-18T03:22:31.502Z,5.399816
2022-08-18T03:27:33.875Z,4.905126
2022-08-18T03:32:35.502Z,4.930422
2022-08-18T03:37:37.505Z,4.560922
2022-08-18T03:42:38.943Z,4.46397
2022-08-18T03:47:40.414Z,5.2077
2022-08-18T03:52:42.359Z,5.310678
2022-08-18T03:57:43.834Z,4.645202
2022-08-18T04:02:45.553Z,5.244038
2022-08-18T04:07:47.336Z,5.239194
2022-08-18T04:12:48.937Z,5.095044
2022-08-18T04:17:56.193Z,4.868788
2022-08-18T04:23:08.557Z,5.285372
2022-08-18T04:28:10.322Z,5.183586
2022-08-18T04:33:12.089Z,5.220372
2022-08-18T04:38:14.101Z,5.533096
2022-08-18T04:43:15.999Z,5.528548
2022-08-18T04:48:17.744Z,5.813182
2022-08-18T04:53:20.203Z,5.231104
2022-08-18T04:58:22.292Z,5.947034
2022-08-18T05:03:24.120Z,5.574874
2022-08-18T05:08:26.166Z,6.332434
2022-08-18T05:13:27.951Z,6.491158
2022-08-18T05:18:30.047Z,6.563524
2022-08-18T05:23:33.497Z,6.28669
2022-08-18T05:28:35.284Z,6.947322
2022-08-18T05:33:37.065Z,6.796402
2022-08-18T05:38:39.074Z,6.912772
2022-08-18T05:43:51.548Z,7.882614
2022-08-18T05:48:54.076Z,8.365404
2022-08-18T05:53:56.286Z,8.618434
2022-08-18T05:58:57.909Z,8.85883
2022-08-18T06:03:59.597Z,9.851456
2022-08-18T06:09:01.212Z,9.74013
2022-08-18T06:14:03.154Z,10.30606
2022-08-18T06:19:04.917Z,10.275772
2022-08-18T06:24:06.853Z,10.848448
2022-08-18T06:29:08.588Z,11.098074
2022-08-18T06:34:10.470Z,11.653148
2022-08-18T06:39:12.514Z,12.11405
2022-08-18T06:44:14.158Z,12.891408
2022-08-18T06:49:15.814Z,13.626226
2022-08-18T06:54:17.791Z,13.852972
2022-08-18T06:59:19.586Z,14.077168
2022-08-18T07:04:21.361Z,14.317254
2022-08-18T07:09:23.172Z,14.304186
2022-08-18T07:14:24.629Z,15.459972
2022-08-18T07:19:26.410Z,15.505254
2022-08-18T07:24:28.763Z,15.534822
2022-08-18T07:29:30.649Z,16.42105
2022-08-18T07:34:32.415Z,16.309738
2022-08-18T07:39:34.250Z,17.042196
2022-08-18T07:44:36.039Z,16.712076
2022-08-18T07:49:46.099Z,17.274968
2022-08-18T07:55:01.819Z,17.958996
2022-08-18T08:00:03.541Z,17.689938
2022-08-18T08:05:05.228Z,17.63106
2022-08-18T08:10:08.893Z,17.62893
2022-08-18T08:15:10.666Z,18.858916
2022-08-18T08:20:12.126Z,18.9231
2022-08-18T08:25:42.909Z,18.71592
2022-08-18T08:30:47.312Z,19.65815
2022-08-18T08:35:50.379Z,19.322194
2022-08-18T08:40:52.364Z,19.44162
2022-08-18T08:45:53.852Z,20.320128
2022-08-18T08:50:55.386Z,20.179588
2022-08-18T08:56:02.203Z,19.429516
2022-08-18T09:01:04.227Z,20.314646
2022-08-18T09:06:05.821Z,19.710786
2022-08-18T09:11:07.411Z,21.293528
2022-08-18T09:16:12.263Z,21.277462
2022-08-18T09:21:15.595Z,20.921274
2022-08-18T09:26:17.452Z,22.500434
2022-08-18T09:31:19.540Z,20.95878
2022-08-18T09:36:21.556Z,21.393224
2022-08-18T09:41:27.854Z,21.66429
2022-08-18T09:46:33.202Z,21.078396
2022-08-18T09:51:34.929Z,22.6302
2022-08-18T09:56:37.384Z,21.26396
2022-08-18T10:01:56.054Z,22.92063
2022-08-18T10:06:58.729Z,21.917634
2022-08-18T10:12:01.622Z,22.614948
2022-08-18T10:17:23.509Z,22.561932
2022-08-18T10:22:35.183Z,22.757958
2022-08-18T10:27:37.680Z,22.80537
2022-08-18T10:32:39.578Z,22.836268
2022-08-18T10:37:41.188Z,22.730846
2022-08-18T10:42:45.167Z,22.795668
2022-08-18T10:47:49.022Z,22.618734
2022-08-18T10:52:54.460Z,22.567034
2022-08-18T10:58:19.012Z,22.847368
2022-08-18T11:03:50.257Z,22.686948
2022-08-18T11:08:55.023Z,22.744144
2022-08-18T11:13:59.325Z,23.076694
2022-08-18T11:19:01.234Z,22.690042
2022-08-18T11:24:03.161Z,22.96963
2022-08-18T11:29:05.536Z,23.5032
2022-08-18T11:34:07.484Z,23.341708
2022-08-18T11:39:09.398Z,22.56911
2022-08-18T11:44:11.413Z,23.040002
2022-08-18T11:49:13.224Z,22.816022
2022-08-18T11:54:17.610Z,23.467892
2022-08-18T11:59:19.741Z,22.856188
2022-08-18T12:04:21.734Z,22.66772
2022-08-18T12:09:45.251Z,22.649428
2022-08-18T12:15:17.116Z,22.700884
2022-08-18T12:20:19.722Z,23.055688
2022-08-18T13:09:54.288Z,22.26298
2022-08-18T13:14:56.035Z,22.48259
2022-08-18T13:19:59.633Z,22.14255
2022-08-18T13:25:03.988Z,22.030872
2022-08-18T13:30:30.269Z,22.150488
2022-08-18T13:35:37.884Z,22.529134
2022-08-18T13:40:47.135Z,22.22546
2022-08-18T13:45:53.237Z,21.76252
2022-08-18T13:50:57.704Z,22.282398
2022-08-18T13:55:59.627Z,22.1592
2022-08-18T14:01:16.248Z,21.957108
2022-08-18T14:06:39.719Z,21.661454
2022-08-18T14:11:53.651Z,21.160058
2022-08-18T14:16:55.529Z,20.443706
2022-08-18T14:21:58.589Z,20.77878
2022-08-18T14:27:00.049Z,20.619378
2022-08-18T14:32:02.546Z,20.809162
2022-08-18T14:37:04.435Z,20.696168
2022-08-18T14:42:06.591Z,20.243772
2022-08-18T14:47:10.027Z,20.071452
2022-08-18T14:52:14.481Z,19.761862
2022-08-18T14:57:16.630Z,19.556446
2022-08-18T15:02:18.487Z,19.756828
2022-08-18T15:07:23.758Z,18.92751
2022-08-18T15:12:26.132Z,18.425938
2022-08-18T15:17:28.093Z,18.53117
2022-08-18T15:22:31.381Z,18.652984
2022-08-18T15:27:42.532Z,17.522572
2022-08-18T15:32:44.958Z,17.32432
2022-08-18T15:37:46.673Z,17.118036
2022-08-18T15:42:48.547Z,16.842086
2022-08-18T15:47:50.614Z,16.311598
2022-08-18T15:57:57.091Z,15.642076
2022-08-18T16:02:59.959Z,15.112904
2022-08-18T16:08:01.454Z,15.24309
2022-08-18T16:13:03.403Z,14.866902
2022-08-18T16:18:05.124Z,14.612866
2022-08-18T16:23:06.838Z,14.603856
2022-08-18T16:28:08.494Z,14.85066
2022-08-18T16:33:09.938Z,14.573582
2022-08-18T16:38:11.805Z,13.94036
2022-08-18T16:43:13.541Z,13.856066
2022-08-18T16:48:16.909Z,13.578908
2022-08-18T16:53:18.544Z,13.611556
2022-08-18T16:58:20.459Z,13.107652
2022-08-18T17:03:22.402Z,12.935984
2022-08-18T17:08:24.160Z,13.066618
2022-08-18T17:13:26.052Z,13.433362
2022-08-18T17:18:27.934Z,12.739592
2022-08-18T17:23:29.663Z,12.596706
2022-08-18T17:28:31.435Z,12.311324
2022-08-18T17:33:37.130Z,11.9288
2022-08-18T17:38:38.906Z,12.213352
2022-08-18T17:48:42.884Z,11.871714
2022-08-18T17:53:45.951Z,11.624462
2022-08-18T17:58:47.661Z,11.706544
2022-08-18T18:03:49.137Z,11.845564
2022-08-18T18:08:50.771Z,11.58811
2022-08-18T18:13:52.584Z,11.446158
2022-08-18T18:18:54.087Z,12.131542
2022-08-18T18:24:01.588Z,11.521074
2022-08-18T18:29:06.257Z,11.19185
2022-08-18T18:34:27.657Z,11.44704
2022-08-18T18:39:34.254Z,10.947464
2022-08-18T18:44:36.333Z,10.404804
2022-08-18T18:49:38.006Z,10.104376
2022-08-18T18:54:39.566Z,9.6982
2022-08-18T18:59:41.111Z,9.899884
2022-08-18T19:04:42.624Z,9.711172
2022-08-18T19:09:46.208Z,10.034208
2022-08-18T19:14:57.644Z,9.9459
2022-08-18T19:20:01.871Z,9.673814
2022-08-18T19:25:03.342Z,9.907278
2022-08-18T19:30:05.053Z,10.061578
2022-08-18T19:35:12.177Z,8.831026
2022-08-18T19:40:14.056Z,8.590072
2022-08-18T19:45:17.272Z,9.246456
2022-08-18T19:50:19.037Z,8.443548
2022-08-18T19:55:20.529Z,8.368374
2022-08-18T20:00:22.182Z,8.782474
2022-08-18T20:05:23.629Z,9.092728
2022-08-18T20:10:25.086Z,8.958118
2022-08-18T20:15:27.140Z,9.02697
2022-08-18T20:20:29.183Z,8.149322
2022-08-18T20:25:30.997Z,8.729364
2022-08-18T20:30:32.972Z,8.546378
2022-08-18T20:35:34.871Z,9.117276
2022-08-18T20:40:36.679Z,8.559298
2022-08-18T20:45:42.535Z,8.616942
2022-08-18T20:50:47.646Z,7.903062
2022-08-18T20:55:49.190Z,7.789648
2022-08-18T21:00:54.823Z,8.08754
2022-08-18T21:05:56.449Z,7.54693
2022-08-18T21:10:57.872Z,8.005296
2022-08-18T21:15:59.539Z,7.893646
2022-08-18T21:21:01.115Z,7.821714
2022-08-18T21:26:02.602Z,7.112244
2022-08-18T21:31:42.838Z,6.906288
2022-08-18T21:36:46.019Z,7.38996
2022-08-18T21:41:47.764Z,6.609416
2022-08-18T21:46:49.796Z,7.122084
2022-08-18T21:51:51.256Z,7.197668
2022-08-18T21:56:52.725Z,6.841264
2022-08-18T22:01:54.426Z,6.799496
2022-08-18T22:06:56.176Z,6.665782
2022-08-18T22:12:01.107Z,6.93024
2022-08-18T22:17:04.205Z,6.237432
2022-08-18T22:22:05.605Z,6.295958
2022-08-18T22:27:07.392Z,6.3239
2022-08-18T22:32:09.296Z,6.420256
2022-08-18T22:37:11.040Z,5.743014
2022-08-18T22:42:12.841Z,5.870244
2022-08-18T22:47:14.958Z,5.909514
2022-08-18T22:52:16.755Z,5.590754
2022-08-18T22:57:18.603Z,5.806698
2022-08-18T23:02:25.835Z,5.952326
2022-08-18T23:07:27.630Z,4.606218
2022-08-18T23:12:29.398Z,4.3435
2022-08-18T23:17:31.363Z,5.103554
2022-08-18T23:22:33.138Z,4.855396
2022-08-18T23:27:34.922Z,4.462506
2022-08-18T23:32:36.511Z,4.630484
2022-08-18T23:37:38.385Z,4.766992
2022-08-18T23:42:40.148Z,4.101234
2022-08-18T23:47:42.573Z,4.06431
2022-08-18T23:52:44.362Z,3.827184
2022-08-18T23:57:49.159Z,3.896184
